Natalia, Texas
Current Conditions -  °F | °C
As of 7:15 PM on Thursday 18 Dec 2014 (Local Time) from KCVB Reporting Station
Overcast Overcast  
Wind Chill: 63°   Ceiling: 1300
Heat Index: 63°   Visibility: 10mi
Dew Point: 57°   Wind: 7mph
Humidity: 82%   Direction: 90°E
Pressure: 30.04"   Gusts: NA
Location:  29.19°N, 98.86°W
Report Text: KCVB 190115Z AUTO 09006KT 10SM OVC013 17/14 A3004 RMK AO2 T01720141
Loading
Personal Weather Stations






























Interactive Weather Map New forecast layout! Learn more

10-Day Weather Forecast

Advertisements
Track Severe Weather on mobile